Time;durP1;ratioP1;P1;durP2;ratioP2;P2;SDS_P1;SDS_P2;PMS_P1;PMS_P2;Temp;Humidity;BMP_temperature;BMP_pressure;BME280_temperature;BME280_humidity;BME280_pressure;Samples;Min_cycle;Max_cycle;Signal;HPM_P1;HPM_P2
2021/10/28 00:13:30;;;;;;;9.47;6.80;;;;;;;;;;5037792;28;20985;-89
2021/10/28 00:16:07;;;;;;;9.37;6.23;;;;;;;;;;5044787;28;20526;-90
2021/10/28 00:18:41;;;;;;;7.00;6.30;;;4.00;99.90;;;;;;5038053;28;20962;-90
2021/10/28 00:21:08;;;;;;;9.97;6.80;;;;;;;;;;5037277;28;20509;-94
2021/10/28 00:23:42;;;;;;;8.90;6.20;;;;;;;;;;5036218;28;20463;-92
2021/10/28 00:26:09;;;;;;;12.03;7.17;;;;;;;;;;5036265;28;20474;-90
2021/10/28 00:28:38;;;;;;;9.53;6.00;;;;;;;;;;5037252;28;20483;-91
2021/10/28 00:31:06;;;;;;;11.50;7.30;;;4.00;99.90;;;;;;5037530;28;20440;-91
2021/10/28 00:33:36;;;;;;;14.07;8.07;;;4.00;99.90;;;;;;5043538;28;20452;-91
2021/10/28 00:36:05;;;;;;;10.67;7.33;;;3.90;99.90;;;;;;5042966;28;20432;-89
2021/10/28 00:38:33;;;;;;;13.37;7.40;;;;;;;;;;5042157;28;20443;-92
2021/10/28 00:41:04;;;;;;;12.90;7.47;;;;;;;;;;5034563;28;20486;-90
2021/10/28 00:43:34;;;;;;;11.37;7.23;;;;;;;;;;5033926;28;20493;-91
2021/10/28 00:46:05;;;;;;;11.10;6.67;;;;;;;;;;5034578;28;20541;-90
2021/10/28 00:48:32;;;;;;;12.50;9.10;;;;;;;;;;5034311;28;20502;-90
2021/10/28 00:51:00;;;;;;;15.43;8.33;;;3.70;99.90;;;;;;5034849;28;20542;-92
2021/10/28 00:53:29;;;;;;;10.63;7.80;;;;;;;;;;5033077;28;20498;-90
2021/10/28 00:55:56;;;;;;;10.17;8.07;;;;;;;;;;5032947;28;20447;-89
2021/10/28 00:58:24;;;;;;;10.87;8.07;;;;;;;;;;5033787;28;20447;-88
2021/10/28 01:00:52;;;;;;;12.97;8.23;;;;;;;;;;5035126;28;20479;-92
2021/10/28 01:03:21;;;;;;;12.77;8.83;;;3.60;99.90;;;;;;5033627;28;20451;-89
2021/10/28 01:05:48;;;;;;;13.33;8.60;;;;;;;;;;5033834;28;20450;-89
2021/10/28 01:08:19;;;;;;;10.47;8.17;;;3.70;99.90;;;;;;5033543;28;20513;-88
2021/10/28 01:10:49;;;;;;;14.40;8.77;;;3.60;99.90;;;;;;5032831;28;21005;-90
2021/10/28 01:13:18;;;;;;;12.67;9.40;;;3.70;99.90;;;;;;5033236;28;20455;-92
2021/10/28 01:15:45;;;;;;;12.70;9.10;;;3.70;99.90;;;;;;5034000;28;20849;-90
2021/10/28 01:18:14;;;;;;;11.73;8.87;;;3.60;99.90;;;;;;5034070;28;20436;-90
2021/10/28 01:20:44;;;;;;;12.43;8.87;;;3.60;99.90;;;;;;5034407;28;20432;-91
2021/10/28 01:23:12;;;;;;;14.03;10.60;;;3.70;99.90;;;;;;5012043;28;20456;-89
2021/10/28 01:25:41;;;;;;;16.97;10.40;;;3.80;99.90;;;;;;5033340;28;20796;-88
2021/10/28 01:28:16;;;;;;;14.17;10.87;;;3.80;99.90;;;;;;5033629;28;20483;-90
2021/10/28 01:30:46;;;;;;;16.30;11.83;;;;;;;;;;5033863;28;20501;-92
2021/10/28 01:33:14;;;;;;;15.50;10.63;;;;;;;;;;5033772;28;20446;-90
2021/10/28 01:35:42;;;;;;;16.37;10.80;;;;;;;;;;5035890;28;20451;-87
2021/10/28 01:38:12;;;;;;;23.37;11.87;;;3.80;99.90;;;;;;5042458;28;20447;-88
2021/10/28 01:40:39;;;;;;;19.23;11.60;;;;;;;;;;5033085;28;20470;-89
2021/10/28 01:43:06;;;;;;;17.50;11.83;;;;;;;;;;5034216;28;20447;-87
2021/10/28 01:45:33;;;;;;;19.40;11.67;;;;;;;;;;5041160;28;20448;-89
2021/10/28 01:48:01;;;;;;;17.27;11.93;;;;;;;;;;5034591;28;20533;-88
2021/10/28 01:50:29;;;;;;;19.73;12.03;;;;;;;;;;5033571;28;20451;-91
2021/10/28 01:52:59;;;;;;;23.20;11.73;;;3.90;99.90;;;;;;5033520;28;20455;-90
2021/10/28 01:55:26;;;;;;;24.93;12.43;;;;;;;;;;5032836;28;20466;-90
2021/10/28 01:57:53;;;;;;;21.10;13.00;;;;;;;;;;5032924;28;20893;-91
2021/10/28 02:00:22;;;;;;;19.70;11.70;;;3.90;99.90;;;;;;5033404;28;20501;-93
2021/10/28 02:02:50;;;;;;;26.50;12.77;;;3.90;99.90;;;;;;5035164;28;20455;-92
2021/10/28 02:05:18;;;;;;;22.93;12.10;;;;;;;;;;5034047;28;20435;-89
2021/10/28 02:07:45;;;;;;;17.00;11.37;;;;;;;;;;5034067;28;21013;-90
2021/10/28 02:10:15;;;;;;;19.37;12.83;;;3.90;99.90;;;;;;5026689;28;20448;-91
2021/10/28 02:12:42;;;;;;;18.20;13.10;;;;;;;;;;5035100;28;20447;-92
2021/10/28 02:15:12;;;;;;;17.00;12.37;;;3.90;99.90;;;;;;5037181;28;20494;-92
2021/10/28 02:17:39;;;;;;;19.80;14.17;;;;;;;;;;5037436;28;20431;-89
2021/10/28 02:20:09;;;;;;;18.50;13.60;;;4.10;99.90;;;;;;5037371;28;20423;-88
2021/10/28 02:22:37;;;;;;;20.57;13.50;;;4.10;99.90;;;;;;5037937;28;20451;-89
2021/10/28 02:25:06;;;;;;;17.07;12.70;;;4.20;99.90;;;;;;5037358;28;20455;-87
2021/10/28 02:27:34;;;;;;;18.53;13.37;;;4.10;99.90;;;;;;5036739;28;20439;-90
2021/10/28 02:30:01;;;;;;;19.40;13.53;;;;;;;;;;5037138;28;20436;-92
2021/10/28 02:32:28;;;;;;;22.30;13.87;;;;;;;;;;5037351;28;20423;-89
2021/10/28 02:34:55;;;;;;;17.97;11.93;;;;;;;;;;5036851;28;20458;-91
2021/10/28 02:37:23;;;;;;;17.77;12.77;;;;;;;;;;5034454;28;20824;-92
2021/10/28 02:39:51;;;;;;;19.00;13.33;;;;;;;;;;5036148;28;20475;-88
2021/10/28 02:42:18;;;;;;;21.00;14.63;;;;;;;;;;5036224;28;20443;-91
2021/10/28 02:44:47;;;;;;;18.47;13.60;;;;;;;;;;5037015;28;20447;-92
2021/10/28 02:47:15;;;;;;;19.33;13.30;;;;;;;;;;5036809;28;20533;-93
2021/10/28 02:49:43;;;;;;;18.80;13.10;;;;;;;;;;5036757;28;20504;-90
2021/10/28 02:52:10;;;;;;;16.60;12.50;;;;;;;;;;5037039;28;20864;-93
2021/10/28 02:54:38;;;;;;;18.70;12.90;;;;;;;;;;5027332;28;20481;-89
2021/10/28 02:57:06;;;;;;;17.73;12.73;;;3.80;99.90;;;;;;5019516;28;20818;-90
2021/10/28 02:59:33;;;;;;;22.07;13.30;;;;;;;;;;5016785;28;20500;-89
2021/10/28 03:02:03;;;;;;;18.17;13.00;;;3.90;99.90;;;;;;5016679;28;20495;-91
2021/10/28 03:04:30;;;;;;;18.57;13.10;;;;;;;;;;5016522;28;20448;-89
2021/10/28 03:06:57;;;;;;;17.03;12.50;;;;;;;;;;5019039;28;20458;-91
2021/10/28 03:09:26;;;;;;;15.67;12.57;;;4.00;99.90;;;;;;5016429;28;20893;-92
2021/10/28 03:11:56;;;;;;;24.03;14.77;;;4.10;99.90;;;;;;5019336;28;20448;-90
2021/10/28 03:14:31;;;;;;;24.00;16.60;;;4.40;99.90;;;;;;5025745;28;20465;-87
2021/10/28 03:17:02;;;;;;;34.30;17.47;;;;;;;;;;5021041;28;20440;-89
2021/10/28 03:27:53;;;;;;;38.60;16.50;;;;;;;;;;5153314;27;20426;-90
2021/10/28 03:30:20;;;;;;;38.50;18.17;;;;;;;;;;5154015;27;20441;-91
2021/10/28 03:32:48;;;;;;;46.93;19.93;;;;;;;;;;5153585;27;20430;-93
2021/10/28 03:35:15;;;;;;;37.07;17.70;;;;;;;;;;5153473;27;20798;-88
2021/10/28 03:37:45;;;;;;;74.87;19.20;;;;;;;;;;5153666;27;20517;-88
2021/10/28 04:08:11;;;;;;;46.03;18.57;;;;;;;;;;5146726;27;20479;-90
2021/10/28 04:21:55;;;;;;;36.57;18.20;;;;;;;;;;5152684;27;20525;-88
2021/10/28 04:29:50;;;;;;;27.30;16.73;;;;;;;;;;5152408;27;20515;-89
2021/10/28 04:32:17;;;;;;;27.70;19.60;;;;;;;;;;5147252;27;20500;-92
2021/10/28 04:34:44;;;;;;;28.83;19.00;;;;;;;;;;5138851;27;20431;-93
2021/10/28 04:37:12;;;;;;;28.33;17.30;;;;;;;;;;5139357;27;20438;-91
2021/10/28 04:39:39;;;;;;;24.03;18.93;;;;;;;;;;5139748;27;20427;-93
2021/10/28 04:42:07;;;;;;;28.50;19.40;;;;;;;;;;5146208;27;20482;-89
2021/10/28 04:44:35;;;;;;;22.97;15.00;;;5.80;99.90;;;;;;5146144;27;20443;-92
2021/10/28 04:47:02;;;;;;;20.83;12.63;;;;;;;;;;5138942;27;20450;-92
2021/10/28 04:49:29;;;;;;;21.87;14.73;;;;;;;;;;5138750;27;20431;-90
2021/10/28 04:51:56;;;;;;;13.30;9.00;;;;;;;;;;5137957;27;20942;-91
2021/10/28 04:54:23;;;;;;;19.93;13.90;;;;;;;;;;5137522;27;20466;-90
2021/10/28 04:56:50;;;;;;;29.70;17.30;;;;;;;;;;5136882;27;20442;-91
2021/10/28 04:59:17;;;;;;;37.03;21.97;;;;;;;;;;5138141;27;20436;-92
2021/10/28 05:01:46;;;;;;;28.10;18.90;;;5.90;99.90;;;;;;5138564;27;20471;-92
2021/10/28 05:04:13;;;;;;;27.70;18.20;;;;;;;;;;5137678;27;20458;-90
2021/10/28 05:06:41;;;;;;;29.43;18.53;;;;;;;;;;5137606;27;20447;-92
2021/10/28 05:09:09;;;;;;;28.80;17.80;;;;;;;;;;5137458;27;20458;-89
2021/10/28 05:11:36;;;;;;;35.70;18.40;;;;;;;;;;5136840;27;20450;-93
2021/10/28 05:14:03;;;;;;;37.13;21.40;;;;;;;;;;5135828;27;20439;-94
2021/10/28 05:16:31;;;;;;;21.67;15.20;;;;;;;;;;5137564;27;20539;-90
2021/10/28 05:18:59;;;;;;;18.50;10.10;;;5.70;99.90;;;;;;5136927;27;20454;-89
2021/10/28 05:21:26;;;;;;;32.23;19.23;;;;;;;;;;5137138;27;20525;-89
2021/10/28 05:23:53;;;;;;;33.67;17.40;;;;;;;;;;5137799;27;20431;-89
2021/10/28 05:26:21;;;;;;;22.00;15.07;;;;;;;;;;5136739;27;20451;-89
2021/10/28 05:28:48;;;;;;;26.40;16.97;;;;;;;;;;5137047;27;20445;-88
2021/10/28 05:31:15;;;;;;;43.93;19.00;;;;;;;;;;5136997;27;20936;-92
2021/10/28 05:33:42;;;;;;;34.60;19.20;;;;;;;;;;5137334;27;20827;-91
2021/10/28 05:36:12;;;;;;;45.80;17.67;;;;;;;;;;5137114;27;20459;-91
2021/10/28 05:38:39;;;;;;;31.20;18.40;;;;;;;;;;5137100;27;20431;-89
2021/10/28 05:41:06;;;;;;;35.67;18.67;;;;;;;;;;5136231;27;20486;-90
2021/10/28 05:43:34;;;;;;;14.00;10.83;;;;;;;;;;5136086;27;20942;-90
2021/10/28 05:46:01;;;;;;;35.60;16.87;;;;;;;;;;5136545;27;20454;-91
2021/10/28 05:48:28;;;;;;;38.20;18.27;;;;;;;;;;5137062;27;20798;-90
2021/10/28 05:50:55;;;;;;;53.03;17.83;;;;;;;;;;5136707;27;20431;-90
2021/10/28 05:53:23;;;;;;;23.07;14.13;;;5.30;99.90;;;;;;5137499;27;20520;-91
2021/10/28 05:55:51;;;;;;;32.07;16.23;;;;;;;;;;5136893;27;20453;-93
2021/10/28 05:58:18;;;;;;;37.47;18.53;;;;;;;;;;5127975;27;20476;-91
2021/10/28 06:00:46;;;;;;;25.57;16.70;;;;;;;;;;5115421;28;20462;-95
2021/10/28 06:03:13;;;;;;;22.10;15.07;;;;;;;;;;5115584;28;20447;-88
2021/10/28 06:05:40;;;;;;;26.13;16.63;;;;;;;;;;5116444;28;20537;-88
2021/10/28 06:08:07;;;;;;;16.03;10.37;;;;;;;;;;5125643;28;20774;-90
2021/10/28 06:10:35;;;;;;;14.33;8.70;;;5.30;99.90;;;;;;5122452;28;20444;-92
2021/10/28 06:13:06;;;;;;;23.77;16.60;;;;;;;;;;5119223;28;20811;-90
2021/10/28 06:15:35;;;;;;;22.20;15.70;;;;;;;;;;5115150;28;20538;-92
2021/10/28 06:18:13;;;;;;;22.73;16.33;;;;;;;;;;5117183;28;20498;-92
2021/10/28 06:20:40;;;;;;;12.90;8.03;;;;;;;;;;5116966;28;20476;-92
2021/10/28 06:23:07;;;;;;;18.63;14.20;;;;;;;;;;5117584;28;20452;-94
2021/10/28 06:25:37;;;;;;;21.53;14.40;;;5.50;99.90;;;;;;5115404;28;20993;-90
2021/10/28 06:28:05;;;;;;;21.63;14.93;;;;;;;;;;5120156;28;20486;-89
2021/10/28 06:30:33;;;;;;;24.40;15.87;;;;;;;;;;5117720;28;20463;-95
2021/10/28 06:33:03;;;;;;;24.73;16.07;;;;;;;;;;5118717;28;20814;-93
2021/10/28 06:35:39;;;;;;;20.83;15.00;;;5.80;99.90;;;;;;5120379;28;20479;-94
2021/10/28 06:38:06;;;;;;;24.37;16.53;;;;;;;;;;5116332;28;20544;-89
2021/10/28 06:40:34;;;;;;;24.27;17.60;;;;;;;;;;5113723;28;20465;-91
2021/10/28 06:43:02;;;;;;;22.87;16.40;;;;;;;;;;5115779;27;20499;-91
2021/10/28 06:45:29;;;;;;;21.20;15.57;;;;;;;;;;5114960;28;20452;-89
2021/10/28 06:47:57;;;;;;;20.80;15.77;;;;;;;;;;5114252;28;20444;-90
2021/10/28 06:50:28;;;;;;;21.00;15.43;;;;;;;;;;5115347;28;20467;-90
2021/10/28 06:52:57;;;;;;;19.43;14.80;;;;;;;;;;5114974;28;20471;-89
2021/10/28 06:55:32;;;;;;;23.60;16.03;;;;;;;;;;5114272;27;20483;-94
2021/10/28 07:02:15;;;;;;;22.93;14.10;;;;;;;;;;5115382;28;20447;-91
2021/10/28 07:03:36;;;;;;;20.43;14.70;;;;;;;;;;5114570;28;20526;-90
2021/10/28 07:06:08;;;;;;;20.33;14.33;;;;;;;;;;5115354;28;20423;-90
2021/10/28 07:08:38;;;;;;;13.40;8.17;;;;;;;;;;5114963;28;20443;-90
2021/10/28 07:11:09;;;;;;;17.10;13.47;;;;;;;;;;5112882;28;20482;-89
2021/10/28 07:13:38;;;;;;;17.33;14.23;;;;;;;;;;5114155;28;20466;-90
2021/10/28 07:16:15;;;;;;;21.10;15.07;;;7.20;99.90;;;;;;5114041;28;20830;-92
2021/10/28 07:18:54;;;;;;;19.47;13.37;;;;;;;;;;5114289;28;20484;-89
2021/10/28 07:27:03;;;;;;;15.90;12.50;;;;;;;;;;5112300;28;20448;-92
2021/10/28 08:05:42;;;;;;;13.07;11.00;;;10.30;99.90;;;;;;5134246;27;20452;-87
2021/10/28 08:14:15;;;;;;;10.33;9.33;;;;;;;;;;5138546;27;20450;-90
2021/10/28 08:19:29;;;;;;;11.30;10.03;;;;;;;;;;5135720;27;20423;-89
2021/10/28 08:21:59;;;;;;;11.57;9.37;;;11.50;99.90;;;;;;5141264;27;20504;-88
2021/10/28 08:29:58;;;;;;;14.80;11.80;;;;;;;;;;5138124;27;20440;-86
2021/10/28 08:32:26;;;;;;;12.60;11.33;;;;;;;;;;5139265;27;20833;-88
2021/10/28 08:34:54;;;;;;;15.33;13.10;;;;;;;;;;5137719;27;20446;-89
2021/10/28 08:37:29;;;;;;;15.20;13.10;;;11.50;99.90;;;;;;5138250;27;21029;-93
2021/10/28 08:39:56;;;;;;;14.70;12.70;;;;;;;;;;5137999;27;20446;-89
2021/10/28 08:42:24;;;;;;;18.83;13.30;;;11.10;99.90;;;;;;5136454;27;20489;-87
2021/10/28 08:44:54;;;;;;;15.30;13.33;;;10.40;99.90;;;;;;5138826;27;20451;-90
2021/10/28 08:47:22;;;;;;;18.80;13.87;;;;;;;;;;5137573;27;20455;-87
2021/10/28 08:49:53;;;;;;;16.93;13.00;;;;;;;;;;5137857;27;20474;-86
2021/10/28 08:52:37;;;;;;;15.47;11.57;;;9.50;99.90;;;;;;5138186;27;20467;-88
2021/10/28 08:55:14;;;;;;;14.43;10.03;;;9.80;99.90;;;;;;5142894;27;20463;-88
2021/10/28 09:26:24;;;;;;;15.43;12.90;;;12.30;99.90;;;;;;5136870;27;20487;-86
2021/10/28 09:29:02;;;;;;;19.20;14.50;;;12.80;99.90;;;;;;5136278;27;20443;-86
2021/10/28 09:31:33;;;;;;;20.57;15.43;;;;;;;;;;5098113;27;20447;-85
2021/10/28 09:34:13;;;;;;;16.00;13.67;;;13.60;99.90;;;;;;5136092;27;20443;-87
2021/10/28 09:45:33;;;;;;;15.57;12.80;;;14.50;99.90;;;;;;5140222;27;20428;-85
2021/10/28 09:48:10;;;;;;;15.37;13.77;;;;;;;;;;5106647;27;20443;-86
2021/10/28 09:50:49;;;;;;;17.70;13.90;;;15.50;99.90;;;;;;5139419;27;20446;-87
2021/10/28 09:53:27;;;;;;;15.10;13.30;;;;;;;;;;5138797;27;20434;-87
2021/10/28 09:58:41;;;;;;;14.53;12.97;;;15.40;99.90;;;;;;5139625;27;20603;-87
2021/10/28 10:01:11;;;;;;;18.00;13.07;;;;;;;;;;5138313;27;20442;-87
2021/10/28 10:03:42;;;;;;;14.60;12.07;;;;;;;;;;5138822;27;20498;-87
2021/10/28 10:06:14;;;;;;;14.57;12.87;;;;;;;;;;5140085;27;20455;-89
2021/10/28 10:08:42;;;;;;;14.10;11.50;;;14.90;99.90;;;;;;5138509;27;20465;-86
2021/10/28 10:11:10;;;;;;;14.87;11.73;;;;;;;;;;5137672;27;20454;-88
2021/10/28 10:13:40;;;;;;;13.30;9.47;;;15.20;99.90;;;;;;5135515;27;20446;-87
2021/10/28 10:16:07;;;;;;;14.77;12.30;;;;;;;;;;5138470;27;20443;-87
2021/10/28 10:18:38;;;;;;;13.03;11.63;;;16.50;99.90;;;;;;5138302;27;20458;-88
2021/10/28 10:21:10;;;;;;;14.33;12.60;;;17.20;99.90;;;;;;5139461;27;20532;-92
2021/10/28 10:24:06;;;;;;;12.63;11.30;;;16.50;99.90;;;;;;5136220;27;20479;-86
2021/10/28 11:21:51;;;;;;;10.67;8.77;;;17.80;99.90;;;;;;4979745;28;20442;-91
2021/10/28 11:27:25;;;;;;;8.50;7.57;;;;;;;;;;4978356;28;20517;-89
2021/10/28 11:30:22;;;;;;;12.27;8.57;;;19.80;99.00;;;;;;4983088;28;20504;-91
2021/10/28 12:21:24;;;;;;;8.97;7.63;;;;;;;;;;5035789;28;20524;-87
2021/10/28 12:44:09;;;;;;;10.07;7.47;;;19.20;98.10;;;;;;5035586;28;20858;-87
2021/10/28 12:47:12;;;;;;;8.30;7.20;;;19.80;97.20;;;;;;5035428;28;20451;-88
2021/10/28 12:50:02;;;;;;;9.73;7.37;;;19.30;97.40;;;;;;5019048;28;20459;-89
2021/10/28 13:06:44;;;;;;;13.70;8.97;;;;;;;;;;5021179;28;20962;-89
2021/10/28 13:53:50;;;;;;;10.80;8.80;;;20.40;97.10;;;;;;5028731;28;20436;-90
2021/10/28 14:27:20;;;;;;;10.07;7.93;;;;;;;;;;5038787;28;20492;-94
2021/10/28 14:38:39;;;;;;;8.97;8.07;;;;;;;;;;5034457;28;20450;-93
2021/10/28 15:01:18;;;;;;;10.93;9.53;;;;;;;;;;4995155;28;20476;-93
2021/10/28 15:28:33;;;;;;;13.27;9.17;;;;;;;;;;5033691;28;20438;-92
2021/10/28 15:36:36;;;;;;;10.60;8.33;;;;;;;;;;5033589;28;20431;-91
2021/10/28 15:39:11;;;;;;;10.30;8.37;;;15.40;99.90;;;;;;5031465;28;20926;-91
2021/10/28 16:23:15;;;;;;;10.27;7.50;;;;;;;;;;5033346;28;20489;-89
2021/10/28 16:25:42;;;;;;;8.50;6.30;;;;;;;;;;5032968;28;20660;-92
2021/10/28 16:28:09;;;;;;;9.00;6.60;;;;;;;;;;5034274;28;20825;-91
2021/10/28 16:30:36;;;;;;;9.43;7.17;;;;;;;;;;5036685;28;20447;-88
2021/10/28 16:33:03;;;;;;;8.80;6.50;;;;;;;;;;5036429;28;20546;-88
2021/10/28 16:35:31;;;;;;;10.37;6.50;;;;;;;;;;5036420;28;20480;-88
2021/10/28 16:37:58;;;;;;;10.20;6.40;;;;;;;;;;5043310;28;20474;-89
2021/10/28 16:40:26;;;;;;;9.37;6.50;;;10.70;99.90;;;;;;5038120;28;20455;-88
2021/10/28 16:42:53;;;;;;;12.07;6.90;;;;;;;;;;5017492;28;20477;-88
2021/10/28 16:45:20;;;;;;;8.63;6.43;;;;;;;;;;5011660;28;20487;-93
2021/10/28 16:47:48;;;;;;;14.70;6.97;;;;;;;;;;5016901;28;20448;-89
2021/10/28 16:50:15;;;;;;;12.00;7.33;;;;;;;;;;5019556;28;20460;-94
2021/10/28 16:52:42;;;;;;;13.00;8.03;;;;;;;;;;5020449;28;20436;-92
2021/10/28 16:55:10;;;;;;;15.53;9.30;;;;;;;;;;5027014;28;20444;-91
2021/10/28 16:57:39;;;;;;;13.33;8.60;;;;;;;;;;5026877;28;20444;-96
2021/10/28 17:00:08;;;;;;;14.30;8.77;;;9.80;99.90;;;;;;5019388;28;20555;-93
2021/10/28 17:02:35;;;;;;;12.90;8.20;;;;;;;;;;5017701;28;20777;-91
2021/10/28 17:05:03;;;;;;;15.50;8.50;;;;;;;;;;5017821;28;20456;-92
2021/10/28 17:07:30;;;;;;;12.33;8.37;;;;;;;;;;5017066;28;20453;-91
2021/10/28 17:09:57;;;;;;;11.07;8.00;;;;;;;;;;5017205;28;20437;-92
2021/10/28 17:12:24;;;;;;;13.17;8.00;;;;;;;;;;5017746;28;20480;-91
2021/10/28 17:14:53;;;;;;;14.00;7.80;;;;;;;;;;5016569;28;20438;-90
2021/10/28 17:17:20;;;;;;;12.40;8.37;;;;;;;;;;5017500;28;20440;-91
2021/10/28 17:19:48;;;;;;;10.43;7.00;;;;;;;;;;5026663;28;20453;-90
2021/10/28 17:22:15;;;;;;;10.20;7.43;;;;;;;;;;5033019;28;20448;-89
2021/10/28 17:24:47;;;;;;;12.53;8.40;;;;;;;;;;5020774;28;20984;-94
2021/10/28 17:27:14;;;;;;;10.80;8.33;;;;;;;;;;5021925;28;20433;-90
2021/10/28 17:29:42;;;;;;;9.77;7.57;;;;;;;;;;5016765;28;20502;-90
2021/10/28 17:32:10;;;;;;;10.70;7.77;;;;;;;;;;5015683;28;20444;-91
2021/10/28 17:34:37;;;;;;;16.17;9.27;;;;;;;;;;5016841;28;20828;-89
2021/10/28 17:37:05;;;;;;;17.50;11.00;;;;;;;;;;5016567;28;20901;-90
2021/10/28 17:39:32;;;;;;;15.40;10.90;;;;;;;;;;5016698;28;20445;-90
2021/10/28 17:42:00;;;;;;;11.23;8.20;;;8.90;99.90;;;;;;5015585;28;20432;-91
2021/10/28 17:44:36;;;;;;;17.00;9.77;;;8.80;99.90;;;;;;5015920;28;20496;-90
2021/10/28 17:47:04;;;;;;;15.37;9.33;;;;;;;;;;5017026;28;20460;-90
2021/10/28 17:49:32;;;;;;;14.93;10.27;;;;;;;;;;5016707;28;20460;-92
2021/10/28 17:52:00;;;;;;;14.93;9.70;;;;;;;;;;5016157;28;20457;-91
2021/10/28 17:54:27;;;;;;;14.10;9.07;;;;;;;;;;5015999;28;20433;-89
2021/10/28 17:56:55;;;;;;;15.63;8.60;;;;;;;;;;5015469;28;20448;-91
2021/10/28 17:59:22;;;;;;;10.67;8.53;;;;;;;;;;5015664;28;20433;-90
2021/10/28 18:01:50;;;;;;;9.67;7.43;;;;;;;;;;5016327;28;20936;-92
2021/10/28 18:04:17;;;;;;;14.47;9.00;;;;;;;;;;5016712;28;20488;-90
2021/10/28 18:06:46;;;;;;;16.87;8.83;;;;;;;;;;5016504;28;20459;-89
2021/10/28 18:09:13;;;;;;;13.10;8.87;;;;;;;;;;5024619;28;20457;-90
2021/10/28 18:11:40;;;;;;;12.87;8.60;;;;;;;;;;5015946;28;20468;-92
2021/10/28 18:14:17;;;;;;;11.73;7.53;;;;;;;;;;5015399;28;20444;-90
2021/10/28 18:16:44;;;;;;;11.60;8.40;;;;;;;;;;5015819;28;20443;-90
2021/10/28 18:19:12;;;;;;;16.17;9.33;;;;;;;;;;5015224;28;20461;-88
2021/10/28 18:21:42;;;;;;;15.10;9.23;;;;;;;;;;5014656;28;20444;-89
2021/10/28 18:24:10;;;;;;;13.10;9.13;;;;;;;;;;5015057;28;20480;-90
2021/10/28 18:26:38;;;;;;;13.70;8.93;;;;;;;;;;5015994;28;20463;-90
2021/10/28 18:29:06;;;;;;;14.67;8.10;;;7.90;99.90;;;;;;5013705;28;20456;-89
2021/10/28 18:31:33;;;;;;;14.67;8.93;;;;;;;;;;5007895;28;20468;-90
2021/10/28 18:34:01;;;;;;;12.00;8.20;;;;;;;;;;4995570;28;20964;-89
2021/10/28 18:36:30;;;;;;;12.30;8.13;;;7.60;99.90;;;;;;4995724;28;20525;-89
2021/10/28 18:38:57;;;;;;;13.10;8.23;;;;;;;;;;4995205;28;20449;-89
2021/10/28 18:41:26;;;;;;;7.90;6.70;;;;;;;;;;4994945;28;20433;-93
2021/10/28 18:43:53;;;;;;;11.90;7.97;;;;;;;;;;4995384;28;20516;-91
2021/10/28 18:46:28;;;;;;;12.90;8.07;;;7.50;99.90;;;;;;4995886;28;20819;-94
2021/10/28 18:48:57;;;;;;;9.23;6.90;;;7.50;99.90;;;;;;4995481;28;20553;-91
2021/10/28 18:51:25;;;;;;;12.60;7.70;;;;;;;;;;4996175;28;20980;-92
2021/10/28 18:53:52;;;;;;;10.33;7.50;;;;;;;;;;4995870;28;20948;-87
2021/10/28 18:56:19;;;;;;;16.67;8.77;;;;;;;;;;4994317;28;20463;-90
2021/10/28 18:58:48;;;;;;;10.00;7.17;;;;;;;;;;4997607;28;20492;-87
2021/10/28 19:01:17;;;;;;;8.17;6.20;;;7.30;99.90;;;;;;4997864;28;20867;-91
2021/10/28 19:03:45;;;;;;;13.20;7.07;;;7.30;99.90;;;;;;4993584;28;20488;-91
2021/10/28 19:06:13;;;;;;;9.67;6.53;;;7.30;99.90;;;;;;4995168;28;20449;-89
2021/10/28 19:08:41;;;;;;;11.10;7.50;;;7.30;99.90;;;;;;4994961;28;20461;-90
2021/10/28 19:11:10;;;;;;;8.20;6.57;;;7.20;99.90;;;;;;4994986;28;20462;-91
2021/10/28 19:13:39;;;;;;;9.30;6.70;;;7.10;99.90;;;;;;4995079;28;20917;-90
2021/10/28 19:16:08;;;;;;;12.20;7.10;;;;;;;;;;4995732;28;20515;-90
2021/10/28 19:18:35;;;;;;;9.37;6.87;;;;;;;;;;4994220;28;20445;-91
2021/10/28 19:21:02;;;;;;;11.80;7.90;;;;;;;;;;4995308;28;20435;-90
2021/10/28 19:23:30;;;;;;;14.17;6.73;;;;;;;;;;4994377;28;20449;-90
2021/10/28 19:25:57;;;;;;;15.80;7.40;;;;;;;;;;4994048;28;20453;-90
2021/10/28 19:28:25;;;;;;;11.00;6.80;;;;;;;;;;4998190;28;20894;-92
2021/10/28 19:30:53;;;;;;;9.13;8.00;;;;;;;;;;4996523;28;20831;-90
2021/10/28 19:33:29;;;;;;;10.93;7.67;;;6.90;99.90;;;;;;4995158;28;20505;-92
2021/10/28 19:35:58;;;;;;;11.60;6.63;;;;;;;;;;4995660;28;21031;-91
2021/10/28 19:38:39;;;;;;;8.50;7.00;;;;;;;;;;5002350;28;20449;-91
2021/10/28 19:41:17;;;;;;;9.70;7.33;;;;;;;;;;4999701;28;20454;-92
2021/10/28 19:46:29;;;;;;;9.40;6.90;;;;;;;;;;4997233;28;20448;-91
2021/10/28 19:48:57;;;;;;;8.93;7.10;;;6.70;99.90;;;;;;4999379;28;20468;-94
2021/10/28 19:51:24;;;;;;;11.03;8.17;;;;;;;;;;4993805;28;20837;-91
2021/10/28 19:53:52;;;;;;;9.47;6.83;;;;;;;;;;5002517;28;20471;-91
2021/10/28 19:56:20;;;;;;;9.93;7.33;;;;;;;;;;4994217;28;20499;-93
2021/10/28 19:58:50;;;;;;;9.90;6.83;;;6.60;99.90;;;;;;4994489;28;20540;-92
2021/10/28 20:01:27;;;;;;;9.00;7.87;;;;;;;;;;4996175;28;20565;-93
2021/10/28 20:04:16;;;;;;;11.10;8.07;;;;;;;;;;4996744;28;20472;-94
2021/10/28 20:06:52;;;;;;;9.17;6.50;;;6.50;99.90;;;;;;4999232;28;20449;-91
2021/10/28 20:14:59;;;;;;;10.70;7.60;;;;;;;;;;4998365;28;20464;-92
2021/10/28 20:20:16;;;;;;;10.57;7.37;;;6.30;99.90;;;;;;4998717;28;20448;-93
2021/10/28 20:22:45;;;;;;;15.50;8.87;;;6.20;99.90;;;;;;4997477;28;20465;-92
2021/10/28 20:25:17;;;;;;;14.27;8.87;;;6.30;99.90;;;;;;4998621;28;20492;-93
2021/10/28 20:27:47;;;;;;;16.83;9.20;;;;;;;;;;4999800;28;20437;-93
2021/10/28 20:30:14;;;;;;;9.23;6.50;;;;;;;;;;5015546;28;20449;-92
2021/10/28 20:32:41;;;;;;;10.77;8.00;;;;;;;;;;5008706;28;20473;-90
2021/10/28 20:35:13;;;;;;;10.00;8.03;;;;;;;;;;5001923;28;20445;-91
2021/10/28 20:37:44;;;;;;;8.93;7.20;;;6.10;99.90;;;;;;4998430;28;20937;-91
2021/10/28 20:40:15;;;;;;;10.67;7.50;;;;;;;;;;5000280;28;20796;-91
2021/10/28 20:42:47;;;;;;;12.23;7.87;;;;;;;;;;5000863;28;20457;-89
2021/10/28 20:45:16;;;;;;;11.17;8.27;;;6.00;99.90;;;;;;4997727;28;20488;-90
2021/10/28 20:47:44;;;;;;;11.63;7.70;;;;;;;;;;4997817;28;20454;-89
2021/10/28 20:50:13;;;;;;;10.47;7.90;;;6.00;99.90;;;;;;5001712;28;20472;-89
2021/10/28 20:52:41;;;;;;;10.83;7.43;;;5.90;99.90;;;;;;4996305;28;20949;-90
2021/10/28 20:55:09;;;;;;;12.40;6.97;;;5.80;99.90;;;;;;4997770;28;20465;-89
2021/10/28 20:57:38;;;;;;;11.60;8.73;;;;;;;;;;4997245;28;20480;-89
2021/10/28 21:00:08;;;;;;;14.03;9.27;;;5.90;99.90;;;;;;4997561;28;20457;-88
2021/10/28 21:02:35;;;;;;;13.47;7.40;;;;;;;;;;4998445;28;20453;-92
2021/10/28 21:05:09;;;;;;;10.03;7.90;;;;;;;;;;5001033;28;20493;-91
2021/10/28 21:07:36;;;;;;;11.07;7.73;;;;;;;;;;5001236;28;20434;-90
2021/10/28 21:10:04;;;;;;;14.57;8.00;;;5.90;99.90;;;;;;5004551;28;20535;-90
2021/10/28 21:12:31;;;;;;;11.37;7.63;;;;;;;;;;4996421;28;20442;-90
2021/10/28 21:15:00;;;;;;;12.03;8.10;;;;;;;;;;4996275;28;20468;-89
2021/10/28 21:17:27;;;;;;;12.20;9.03;;;;;;;;;;4996736;28;20465;-91
2021/10/28 21:19:54;;;;;;;10.57;7.90;;;;;;;;;;4996866;28;20976;-89
2021/10/28 21:22:22;;;;;;;10.73;8.13;;;;;;;;;;4997302;28;20441;-90
2021/10/28 21:24:50;;;;;;;13.03;8.70;;;;;;;;;;5000300;28;20520;-89
2021/10/28 21:27:17;;;;;;;13.43;10.17;;;;;;;;;;4995909;28;20859;-92
2021/10/28 21:29:45;;;;;;;14.37;9.43;;;;;;;;;;4997147;28;20445;-88
2021/10/28 21:32:14;;;;;;;13.30;10.30;;;5.80;99.90;;;;;;4999249;28;20445;-90
2021/10/28 21:34:43;;;;;;;16.23;10.63;;;5.70;99.90;;;;;;4999906;28;20983;-90
2021/10/28 21:37:15;;;;;;;16.23;10.50;;;5.60;99.90;;;;;;4996551;28;20426;-88
2021/10/28 21:39:43;;;;;;;12.93;10.00;;;5.60;99.90;;;;;;4996585;28;20813;-90
2021/10/28 21:42:11;;;;;;;13.60;9.63;;;5.50;99.90;;;;;;4995605;28;20968;-91
2021/10/28 21:44:40;;;;;;;13.23;9.37;;;5.50;99.90;;;;;;4997262;28;20989;-90
2021/10/28 21:47:08;;;;;;;13.93;10.10;;;5.40;99.90;;;;;;4996316;28;20479;-89
2021/10/28 21:49:37;;;;;;;14.63;11.30;;;;;;;;;;4997371;28;20465;-90
2021/10/28 21:52:15;;;;;;;15.13;11.07;;;5.30;99.90;;;;;;4999798;28;20457;-92
2021/10/28 21:54:45;;;;;;;13.03;10.40;;;;;;;;;;4997775;28;20477;-89
2021/10/28 21:57:21;;;;;;;15.63;10.30;;;;;;;;;;4999196;28;20531;-90
2021/10/28 22:02:50;;;;;;;13.03;9.57;;;;;;;;;;4997968;28;20469;-91
2021/10/28 22:05:46;;;;;;;13.50;9.80;;;;;;;;;;4996402;28;20511;-92
2021/10/28 22:25:08;;;;;;;13.40;9.73;;;4.90;99.90;;;;;;4995176;28;20512;-89
2021/10/28 22:27:36;;;;;;;15.30;11.20;;;4.90;99.90;;;;;;4991337;28;20445;-90
2021/10/28 22:30:04;;;;;;;13.57;9.43;;;5.00;99.90;;;;;;4997954;28;20476;-89
2021/10/28 22:32:32;;;;;;;12.30;9.30;;;;;;;;;;4996278;28;20453;-91
2021/10/28 22:35:00;;;;;;;15.03;11.17;;;;;;;;;;4997706;28;20471;-92
2021/10/28 22:37:39;;;;;;;13.77;10.07;;;;;;;;;;4998781;28;20481;-89